createdAt,value
2018-09-22T00:00:09.075Z,95361.77
2018-09-22T00:02:35.718Z,95359.41
2018-09-22T00:05:02.484Z,95360.45
2018-09-22T00:07:29.094Z,95360.16
2018-09-22T00:09:55.747Z,95365.81
2018-09-22T00:12:22.394Z,95359.16
2018-09-22T00:14:49.090Z,95361.84
2018-09-22T00:17:15.755Z,95362.19
2018-09-22T00:19:42.453Z,95363.11
2018-09-22T00:22:09.090Z,95364.38
2018-09-22T00:24:35.743Z,95359.95
2018-09-22T00:27:02.466Z,95361.38
2018-09-22T00:29:30.096Z,95365.14
2018-09-22T00:31:56.736Z,95353.25
2018-09-22T00:34:23.465Z,95355.91
2018-09-22T00:36:50.158Z,95364.12
2018-09-22T00:39:16.844Z,95358.30
2018-09-22T00:41:43.514Z,95359.83
2018-09-22T00:44:10.153Z,95361.00
2018-09-22T00:46:36.829Z,95366.06
2018-09-22T00:49:03.477Z,95364.33
2018-09-22T00:51:33.430Z,95363.91
2018-09-22T00:54:00.103Z,95357.59
2018-09-22T00:56:26.745Z,95361.63
2018-09-22T00:58:53.529Z,95366.59
2018-09-22T01:01:20.202Z,95361.67
2018-09-22T01:03:46.861Z,95359.65
2018-09-22T01:06:13.531Z,95360.19
2018-09-22T01:08:40.441Z,95362.17
2018-09-22T01:11:07.139Z,95359.02
2018-09-22T01:13:33.862Z,95356.90
2018-09-22T01:16:00.502Z,95358.73
2018-09-22T01:18:27.183Z,95358.26
2018-09-22T01:20:53.816Z,95356.55
2018-09-22T01:23:20.471Z,95351.12
2018-09-22T01:25:49.299Z,95353.36
2018-09-22T01:28:16.045Z,95352.00
2018-09-22T01:30:42.802Z,95354.28
2018-09-22T01:33:09.444Z,95355.55
2018-09-22T01:35:36.135Z,95355.16
2018-09-22T01:38:02.765Z,95351.79
2018-09-22T01:40:29.401Z,95353.90
2018-09-22T01:42:56.111Z,95355.71
2018-09-22T01:45:26.004Z,95350.69
2018-09-22T01:47:52.763Z,95352.08
2018-09-22T01:50:19.369Z,95351.07
2018-09-22T01:52:46.047Z,95353.84
2018-09-22T01:55:12.718Z,95351.58
2018-09-22T01:57:39.355Z,95344.33
2018-09-22T02:00:06.001Z,95351.16
2018-09-22T02:02:32.722Z,95348.91
2018-09-22T02:05:00.110Z,95353.75
2018-09-22T02:07:26.749Z,95350.09
2018-09-22T02:09:53.392Z,95355.40
2018-09-22T02:12:20.037Z,95356.63
2018-09-22T02:14:46.676Z,95351.48
2018-09-22T02:17:13.376Z,95356.88
2018-09-22T02:19:40.054Z,95362.35
2018-09-22T02:22:06.697Z,95356.66
2018-09-22T02:24:33.354Z,95368.17
2018-09-22T02:27:00.035Z,95372.59
2018-09-22T02:29:28.163Z,95362.64
2018-09-22T02:31:53.394Z,95372.13
2018-09-22T02:34:20.043Z,95363.66
2018-09-22T02:36:49.437Z,95368.33
2018-09-22T02:39:17.411Z,95368.95
2018-09-22T02:41:44.083Z,95375.92
2018-09-22T02:44:09.362Z,95375.28
2018-09-22T02:46:36.016Z,95373.14
2018-09-22T02:49:02.664Z,95371.37
2018-09-22T02:51:29.312Z,95367.86
2018-09-22T02:53:55.953Z,95365.83
2018-09-22T02:56:22.705Z,95370.26
2018-09-22T02:58:49.329Z,95369.50
2018-09-22T03:01:15.970Z,95372.28
2018-09-22T03:03:42.613Z,95373.96
2018-09-22T03:06:09.252Z,95373.86
2018-09-22T03:08:35.986Z,95368.53
2018-09-22T03:11:02.667Z,95369.88
2018-09-22T03:13:29.450Z,95363.25
2018-09-22T03:15:56.054Z,95360.25
2018-09-22T03:18:22.696Z,95356.27
2018-09-22T03:20:49.367Z,95364.61
2018-09-22T03:23:16.013Z,95359.08
2018-09-22T03:25:42.761Z,95356.70
2018-09-22T03:28:09.403Z,95359.77
2018-09-22T03:30:36.021Z,95356.74
2018-09-22T03:33:02.746Z,95360.19
2018-09-22T03:35:29.422Z,95364.83
2018-09-22T03:37:56.062Z,95362.62
2018-09-22T03:40:22.754Z,95360.41
2018-09-22T03:42:52.216Z,95361.09
2018-09-22T03:45:18.868Z,95355.16
2018-09-22T03:47:45.508Z,95354.78
2018-09-22T03:50:12.168Z,95359.42
2018-09-22T03:52:38.854Z,95359.27
2018-09-22T03:55:05.467Z,95357.56
2018-09-22T03:57:32.111Z,95359.70
2018-09-22T03:59:58.762Z,95362.02
2018-09-22T04:02:25.416Z,95360.97
2018-09-22T04:04:52.099Z,95358.60
2018-09-22T04:07:18.737Z,95352.89
2018-09-22T04:09:45.382Z,95352.63
2018-09-22T04:12:12.029Z,95357.18
2018-09-22T04:14:38.669Z,95356.42
2018-09-22T04:17:05.419Z,95356.20
2018-09-22T04:19:32.067Z,95354.81
2018-09-22T04:21:58.765Z,95355.41
2018-09-22T04:24:25.415Z,95343.69
2018-09-22T04:26:52.068Z,95343.03
2018-09-22T04:29:21.887Z,95344.20
2018-09-22T04:31:48.532Z,95343.41
2018-09-22T04:34:16.597Z,95346.22
2018-09-22T04:36:41.833Z,95350.70
2018-09-22T04:39:11.698Z,95351.47
2018-09-22T04:41:38.396Z,95353.20
2018-09-22T04:44:05.060Z,95352.59
2018-09-22T04:46:31.718Z,95358.25
2018-09-22T04:48:58.459Z,95355.82
2018-09-22T04:51:25.126Z,95354.94
2018-09-22T04:53:51.752Z,95356.48
2018-09-22T04:56:18.401Z,95359.83
2018-09-22T04:58:45.056Z,95359.70
2018-09-22T05:01:11.696Z,95367.77
2018-09-22T05:03:38.427Z,95373.33
2018-09-22T05:06:06.369Z,95366.94
2018-09-22T05:08:31.736Z,95369.91
2018-09-22T05:10:58.378Z,95370.61
2018-09-22T05:13:25.018Z,95376.29
2018-09-22T05:15:51.675Z,95370.20
2018-09-22T05:18:18.309Z,95368.98
2018-09-22T05:20:44.954Z,95369.84
2018-09-22T05:23:11.689Z,95370.70
2018-09-22T05:25:38.349Z,95374.66
2018-09-22T05:28:04.995Z,95374.47
2018-09-22T05:30:33.664Z,95377.11
2018-09-22T09:37:02.696Z,95344.89
2018-09-22T09:39:29.374Z,95339.38
2018-09-22T09:41:56.014Z,95339.27
2018-09-22T09:44:22.734Z,95333.75
2018-09-22T09:46:49.476Z,95338.60
2018-09-22T09:49:16.116Z,95340.94
2018-09-22T09:51:42.858Z,95333.98
2018-09-22T09:54:09.490Z,95334.82
2018-09-22T09:56:36.137Z,95330.97
2018-09-22T09:59:02.774Z,95331.78
2018-09-22T10:01:29.470Z,95326.19
2018-09-22T10:03:56.209Z,95328.08
2018-09-22T10:06:22.929Z,95322.80
2018-09-22T10:08:49.620Z,95328.34
2018-09-22T10:11:16.268Z,95322.63
2018-09-22T10:13:42.901Z,95318.59
2018-09-22T10:16:09.589Z,95320.32
2018-09-22T10:18:36.312Z,95321.64
2018-09-22T10:21:02.942Z,95312.13
2018-09-22T10:23:30.841Z,95317.53
2018-09-22T10:25:56.291Z,95316.19
2018-09-22T10:28:22.973Z,95313.28
2018-09-22T10:30:49.663Z,95311.21
2018-09-22T10:33:16.409Z,95307.08
2018-09-22T10:35:43.096Z,95298.92
2018-09-22T10:38:09.698Z,95301.43
2018-09-22T10:40:36.419Z,95292.79
2018-09-22T10:43:03.100Z,95296.99
2018-09-22T10:45:29.774Z,95302.13
2018-09-22T10:47:57.499Z,95301.05
2018-09-22T10:50:24.142Z,95295.51
2018-09-22T10:52:50.957Z,95299.58
2018-09-22T10:55:17.478Z,95295.02
2018-09-22T10:57:44.183Z,95287.76
2018-09-22T11:00:10.826Z,95289.50
2018-09-22T11:02:37.531Z,95280.83
2018-09-22T11:05:05.690Z,95282.27
2018-09-22T11:07:31.002Z,95279.12
2018-09-22T11:09:57.659Z,95273.19
2018-09-22T11:12:24.309Z,95270.55
2018-09-22T11:14:50.965Z,95266.08
2018-09-22T11:17:17.688Z,95262.63
2018-09-22T11:19:44.357Z,95265.36
2018-09-22T11:22:11.097Z,95257.12
2018-09-22T11:24:37.742Z,95257.66
2018-09-22T11:27:04.568Z,95254.27
2018-09-22T11:29:32.505Z,95251.55
2018-09-22T11:31:57.797Z,95244.79
2018-09-22T11:34:24.529Z,95240.31
2018-09-22T11:36:51.213Z,95243.44
2018-09-22T11:39:17.856Z,95236.52
2018-09-22T11:41:44.581Z,95230.55
2018-09-22T11:44:11.190Z,95229.30
2018-09-22T11:46:37.900Z,95229.31
2018-09-22T11:49:04.546Z,95223.77
2018-09-22T11:51:31.187Z,95224.23
2018-09-22T11:53:58.727Z,95232.63
2018-09-22T11:56:25.425Z,95227.86
2018-09-22T11:58:52.091Z,95228.55
2018-09-22T12:01:20.342Z,95232.38
2018-09-22T12:03:45.527Z,95229.08
2018-09-22T12:06:12.187Z,95220.20
2018-09-22T12:08:38.813Z,95221.41
2018-09-22T12:11:05.480Z,95219.09
2018-09-22T12:13:35.265Z,95213.69
2018-09-22T12:16:01.923Z,95217.83
2018-09-22T12:18:28.546Z,95211.38
2018-09-22T12:20:55.210Z,95214.33
2018-09-22T12:23:21.891Z,95206.42
2018-09-22T12:25:48.533Z,95209.80
2018-09-22T12:28:16.969Z,95203.56
2018-09-22T12:30:45.224Z,95205.67
2018-09-22T12:33:11.849Z,95204.75
2018-09-22T12:35:38.537Z,95209.09
2018-09-22T12:38:05.225Z,95215.72
2018-09-22T12:40:31.867Z,95209.04
2018-09-22T12:42:58.507Z,95205.74
2018-09-22T12:45:25.241Z,95214.27
2018-09-22T12:47:52.008Z,95214.40
2018-09-22T12:50:18.619Z,95213.34
2018-09-22T12:52:45.345Z,95214.48
2018-09-22T12:55:11.991Z,95209.92
2018-09-22T12:57:38.671Z,95210.31
2018-09-22T13:00:05.324Z,95206.42
2018-09-22T13:02:31.962Z,95207.02
2018-09-22T13:04:58.642Z,95205.29
2018-09-22T13:07:25.284Z,95207.22
2018-09-22T13:09:51.917Z,95203.85
2018-09-22T13:12:18.563Z,95198.38
2018-09-22T13:14:45.197Z,95202.06
2018-09-22T13:17:12.003Z,95199.13
2018-09-22T13:19:38.582Z,95201.38
2018-09-22T13:24:31.551Z,95195.36
2018-09-22T13:26:58.303Z,95196.09
2018-09-22T13:29:24.855Z,95191.44
2018-09-22T13:31:51.499Z,95187.38
2018-09-22T13:34:20.009Z,95186.39
2018-09-22T13:36:44.781Z,95186.48
2018-09-22T13:39:11.498Z,95187.38
2018-09-22T13:41:38.194Z,95189.17
2018-09-22T13:44:04.878Z,95182.05
2018-09-22T13:46:31.560Z,95184.48
2018-09-22T13:48:59.413Z,95179.69
2018-09-22T13:51:24.894Z,95180.06
2018-09-22T13:53:51.528Z,95185.50
2018-09-22T13:56:18.260Z,95185.50
2018-09-22T13:58:44.944Z,95190.61
2018-09-22T14:01:11.803Z,95187.25
2018-09-22T14:03:38.465Z,95178.47
2018-09-22T14:06:05.055Z,95175.89
2018-09-22T14:08:31.687Z,95171.34
2018-09-22T14:10:58.373Z,95171.13
2018-09-22T14:13:25.009Z,95169.10
2018-09-22T14:15:51.646Z,95172.38
2018-09-22T14:18:19.765Z,95171.89
2018-09-22T14:20:48.029Z,95174.63
2018-09-22T14:23:14.683Z,95177.90
2018-09-22T14:25:44.290Z,95177.95
2018-09-22T14:28:10.975Z,95174.50
2018-09-22T14:30:37.643Z,95171.45
2018-09-22T14:33:05.647Z,95175.05
2018-09-22T14:35:30.917Z,95183.53
2018-09-22T14:37:57.599Z,95177.45
2018-09-22T14:40:25.707Z,95170.38
2018-09-22T14:42:50.961Z,95171.44
2018-09-22T14:45:17.603Z,95171.44
2018-09-22T14:47:46.989Z,95170.25
2018-09-22T14:50:13.629Z,95165.94
2018-09-22T14:52:40.282Z,95162.97
2018-09-22T14:55:06.921Z,95153.34
2018-09-22T14:57:33.605Z,95155.30
2018-09-22T15:00:00.279Z,95150.98
2018-09-22T15:02:26.907Z,95147.38
2018-09-22T15:04:53.620Z,95156.29
2018-09-22T15:07:21.535Z,95152.98
2018-09-22T15:09:47.177Z,95154.08
2018-09-22T15:12:15.150Z,95154.78
2018-09-22T15:14:40.600Z,95162.98
2018-09-22T15:17:07.209Z,95167.38
2018-09-22T15:19:33.844Z,95166.58
2018-09-22T15:22:00.580Z,95166.71
2018-09-22T15:24:27.266Z,95174.73
2018-09-22T15:26:53.902Z,95174.73
2018-09-22T15:29:20.629Z,95180.27
2018-09-22T15:31:47.275Z,95181.67
2018-09-22T15:34:13.926Z,95183.98
2018-09-22T15:36:40.588Z,95189.59
2018-09-22T15:39:07.208Z,95190.78
2018-09-22T15:41:33.941Z,95187.58
2018-09-22T15:44:01.820Z,95182.05
2018-09-22T15:46:27.224Z,95188.37
2018-09-22T15:48:53.943Z,95198.80
2018-09-22T15:51:20.582Z,95202.63
2018-09-22T15:53:47.310Z,95202.58
2018-09-22T15:56:13.958Z,95209.30
2018-09-22T15:58:40.702Z,95211.11
2018-09-22T16:01:08.618Z,95215.64
2018-09-22T16:03:34.097Z,95218.55
2018-09-22T16:06:01.708Z,95226.32
2018-09-22T16:08:28.403Z,95228.18
2018-09-22T16:10:55.016Z,95235.06
2018-09-22T16:13:21.740Z,95238.09
2018-09-22T16:15:48.423Z,95236.87
2018-09-22T16:18:15.095Z,95252.44
2018-09-22T16:20:41.733Z,95250.08
2018-09-22T16:23:08.371Z,95257.26
2018-09-22T16:25:35.077Z,95253.13
2018-09-22T16:28:01.719Z,95258.09
2018-09-22T16:30:28.357Z,95264.81
2018-09-22T16:32:55.001Z,95267.80
2018-09-22T16:35:24.573Z,95269.73
2018-09-22T16:37:51.257Z,95275.03
2018-09-22T16:40:17.970Z,95271.83
2018-09-22T16:42:46.604Z,95269.16
2018-09-22T16:45:14.726Z,95276.83
2018-09-22T16:47:41.344Z,95276.95
2018-09-22T16:50:08.130Z,95285.70
2018-09-22T16:52:34.748Z,95285.76
2018-09-22T16:55:01.544Z,95285.42
2018-09-22T16:57:28.251Z,95286.67
2018-09-22T16:59:54.936Z,95297.94
2018-09-22T17:02:21.567Z,95302.14
2018-09-22T17:04:48.242Z,95306.11
2018-09-22T17:07:15.006Z,95313.22
2018-09-22T17:09:41.714Z,95314.33
2018-09-22T17:12:08.369Z,95320.69
2018-09-22T17:14:35.055Z,95317.06
2018-09-22T17:17:01.726Z,95314.58
2018-09-22T17:19:28.690Z,95313.16
2018-09-22T17:21:55.320Z,95316.53
2018-09-22T17:24:22.018Z,95313.08
2018-09-22T17:26:48.686Z,95315.34
2018-09-22T17:29:15.302Z,95322.25
2018-09-22T17:31:41.940Z,95317.48
2018-09-22T17:34:08.579Z,95323.29
2018-09-22T17:36:36.436Z,95319.73
2018-09-22T17:39:01.856Z,95314.70
2018-09-22T17:41:29.793Z,95321.97
2018-09-22T17:43:55.241Z,95324.73
2018-09-22T17:46:21.900Z,95331.72
2018-09-22T17:48:48.585Z,95329.72
2018-09-22T17:51:15.222Z,95335.84
2018-09-22T17:53:41.948Z,95329.77
2018-09-22T17:56:08.570Z,95343.94
2018-09-22T17:58:36.529Z,95338.50
2018-09-22T18:01:03.176Z,95343.69
2018-09-22T18:03:29.916Z,95346.44
2018-09-22T18:05:56.776Z,95347.69
2018-09-22T18:08:23.383Z,95347.05
2018-09-22T18:10:52.952Z,95355.37
2018-09-22T18:13:19.597Z,95357.94
2018-09-22T18:15:46.233Z,95352.08
2018-09-22T18:18:13.023Z,95355.66
2018-09-22T18:20:39.673Z,95368.70
2018-09-22T18:23:07.708Z,95372.08
2018-09-22T18:25:33.226Z,95365.49
2018-09-22T18:27:59.851Z,95369.21
2018-09-22T18:30:26.535Z,95369.41
2018-09-22T18:32:53.231Z,95371.19
2018-09-22T18:35:21.777Z,95380.55
2018-09-22T18:37:46.490Z,95373.97
2018-09-22T18:40:13.174Z,95387.47
2018-09-22T18:42:39.806Z,95380.89
2018-09-22T18:45:06.458Z,95392.41
2018-09-22T18:47:33.104Z,95393.56
2018-09-22T18:49:59.857Z,95394.31
2018-09-22T18:52:26.651Z,95395.23
2018-09-22T18:54:53.276Z,95401.06
2018-09-22T18:57:19.922Z,95403.64
2018-09-22T18:59:46.550Z,95403.69
2018-09-22T19:02:13.725Z,95406.43
2018-09-22T19:04:40.437Z,95413.06
2018-09-22T19:07:07.146Z,95416.22
2018-09-22T19:09:33.826Z,95425.22
2018-09-22T19:12:00.533Z,95424.19
2018-09-22T19:14:29.115Z,95422.05
2018-09-22T19:16:53.863Z,95433.18
2018-09-22T19:19:20.621Z,95434.87
2018-09-22T19:21:47.221Z,95441.20
2018-09-22T19:24:13.857Z,95437.62
2018-09-22T19:26:40.506Z,95442.81
2018-09-22T19:29:07.198Z,95446.23
2018-09-22T19:31:33.894Z,95443.06
2018-09-22T19:34:00.531Z,95450.66
2018-09-22T19:36:29.746Z,95447.12
2018-09-22T19:38:56.459Z,95451.42
2018-09-22T19:41:23.041Z,95451.28
2018-09-22T19:43:51.004Z,95455.60
2018-09-22T19:46:16.369Z,95455.18
2018-09-22T19:48:43.145Z,95454.83
2018-09-22T19:51:09.824Z,95457.49
2018-09-22T19:53:36.464Z,95459.40
2018-09-22T19:56:03.146Z,95458.89
2018-09-22T19:58:29.781Z,95454.67
2018-09-22T20:00:56.477Z,95454.33
2018-09-22T20:03:24.424Z,95450.66
2018-09-22T20:05:49.878Z,95451.04
2018-09-22T20:08:16.618Z,95452.81
2018-09-22T20:10:43.265Z,95461.59
2018-09-22T20:13:09.967Z,95459.44
2018-09-22T20:15:36.650Z,95468.43
2018-09-22T20:18:03.360Z,95470.08
2018-09-22T20:20:30.013Z,95476.02
2018-09-22T20:22:56.799Z,95473.74
2018-09-22T20:25:23.455Z,95477.16
2018-09-22T20:27:50.177Z,95480.33
2018-09-22T20:30:16.882Z,95474.84
2018-09-22T20:32:43.516Z,95470.08
2018-09-22T20:35:10.150Z,95472.86
2018-09-22T20:37:36.858Z,95470.62
2018-09-22T20:40:03.556Z,95472.13
2018-09-22T20:42:30.225Z,95471.77
2018-09-22T20:44:57.646Z,95468.21
2018-09-22T20:47:29.176Z,95466.57
2018-09-22T20:49:53.720Z,95470.75
2018-09-22T20:52:20.363Z,95478.47
2018-09-22T20:54:47.068Z,95480.13
2018-09-22T20:57:14.917Z,95476.32
2018-09-22T20:59:41.735Z,95485.18
2018-09-22T21:02:07.316Z,95489.09
2018-09-22T21:04:35.371Z,95489.23
2018-09-22T21:07:00.627Z,95489.48
2018-09-22T21:09:27.267Z,95482.56
2018-09-22T21:11:53.910Z,95489.91
2018-09-22T21:14:20.683Z,95494.84
2018-09-22T21:16:47.298Z,95492.22
2018-09-22T21:19:16.047Z,95494.84
2018-09-22T21:21:40.733Z,95496.11
2018-09-22T21:24:07.394Z,95497.03
2018-09-22T21:26:34.136Z,95498.26
2018-09-22T21:29:00.943Z,95496.27
2018-09-22T21:31:27.592Z,95497.32
2018-09-22T21:33:54.263Z,95495.92
2018-09-22T21:36:21.036Z,95492.60
2018-09-22T21:38:47.673Z,95492.73
2018-09-22T21:41:14.338Z,95498.71
2018-09-22T21:43:41.044Z,95493.33
2018-09-22T21:46:07.784Z,95492.12
2018-09-22T21:48:34.469Z,95492.52
2018-09-22T21:51:01.114Z,95494.55
2018-09-22T21:53:27.763Z,95502.27
2018-09-22T21:55:54.404Z,95492.67
2018-09-22T21:58:21.131Z,95492.34
2018-09-22T22:00:47.857Z,95489.72
2018-09-22T22:03:14.511Z,95492.30
2018-09-22T22:05:41.215Z,95493.72
2018-09-22T22:08:07.834Z,95486.09
2018-09-22T22:10:35.811Z,95489.67
2018-09-22T22:13:01.228Z,95488.66
2018-09-22T22:15:27.949Z,95492.24
2018-09-22T22:17:54.618Z,95496.00
2018-09-22T22:20:21.266Z,95500.59
2018-09-22T22:22:47.907Z,95502.63
2018-09-22T22:25:14.555Z,95503.51
2018-09-22T22:27:41.214Z,95501.48
2018-09-22T22:30:07.861Z,95509.97
2018-09-22T22:32:38.519Z,95513.89
2018-09-22T22:35:04.192Z,95509.46
2018-09-22T22:37:30.902Z,95511.11
2018-09-22T22:39:57.564Z,95504.78
2018-09-22T22:42:24.282Z,95507.56
2018-09-22T22:44:50.944Z,95509.84
2018-09-22T22:47:20.668Z,95513.64
2018-09-22T22:49:47.325Z,95511.36
2018-09-22T22:52:13.972Z,95509.34
2018-09-22T22:54:40.728Z,95504.94
2018-09-22T22:57:07.373Z,95506.55
2018-09-22T22:59:33.980Z,95503.80
2018-09-22T23:02:00.627Z,95511.14
2018-09-22T23:04:27.321Z,95508.87
2018-09-22T23:06:53.966Z,95525.95
2018-09-22T23:09:20.596Z,95520.80
2018-09-22T23:11:47.333Z,95522.41
2018-09-22T23:14:14.030Z,95521.68
2018-09-22T23:16:40.667Z,95518.27
2018-09-22T23:19:07.355Z,95525.73
2018-09-22T23:21:34.010Z,95524.21
2018-09-22T23:24:00.654Z,95526.52
2018-09-22T23:26:29.094Z,95524.12
2018-09-22T23:28:54.703Z,95526.52
2018-09-22T23:31:21.415Z,95527.66
2018-09-22T23:33:49.671Z,95524.53
2018-09-22T23:36:14.731Z,95529.44
2018-09-22T23:38:41.376Z,95535.41
2018-09-22T23:41:08.013Z,95533.86
2018-09-22T23:43:34.663Z,95537.31
2018-09-22T23:46:01.311Z,95545.91
2018-09-22T23:48:27.975Z,95540.85
2018-09-22T23:50:54.623Z,95549.33
2018-09-22T23:53:21.262Z,95543.13
2018-09-22T23:55:47.910Z,95542.94
2018-09-22T23:58:14.565Z,95538.98
